首页
METAR-TAF:

METAR-TAF

机场 :

Hammond Northshore Regional Airport

哈蒙德, 路易斯安那州, 美国

纬度: 30-31-15N, 经度: 090-25-03W, 海拔: 13米

当前天气观测

该预报发布于11分钟前的19:55 UTC
风速5节,风向
温度 18°C
湿度 100%
气压 1023 hPa
能見度: 16.1公里
散云层高于400英尺
阴天层高于5500英尺
小雨

METAR: KHDC 191955Z AUTO 35005KT 10SM -RA SCT004 OVC055 18/18 A3020 RMK AO2

时间: 14:06 (20:06 UTC)

预报

该预报发布于1小时和31分钟前的18:35 UTC
预报有效从19日的 19点(UTC)到 20日的 18点(UTC)
风速5节,风向东转东南
能見度: 10公里
多云层高于7000英尺
阴天层高于10000英尺
附近有阵雨
从 20日的 0000点(UTC)
风速3节,风向多变
能見度: 10公里
阴天层高于800英尺
从 20日的 0700点(UTC)
风速节,风向
能見度: 10公里
阴天层高于300英尺
从 20日的 1100点(UTC)
风速10节,风向,有时为16节阵风
能見度: 2.4公里
阴天层高于700英尺
小雨, 轻雾
从 20日的 1700点(UTC)
风速14节,风向,有时为20节阵风
能見度: 1.6公里
阴天层高于700英尺
小雨, 轻雾

TAF: KHDC 191835Z 1919/2018 11005KT P6SM VCSH BKN070 OVC100 FM200000 VRB03KT P6SM RA OVC008 FM200700 00000KT P6SM RA OVC003 FM201100 36010G16KT 1 1/2SM -RA BR OVC007 FM201700 36014G20KT 4SM -RA BR OVC007

超过4000个机场的气象观测和天气预报(METAR&TAF报告)。

可查询的气象台以黄色和红色小点在地图上表示。

将鼠标移到小点上方,可查看气象台名称。

然后点击查看天气观测和预报。

如需切换地图:点击带黑十字的绿色按钮放大地图;点击带横线的绿色按钮缩小地图;或者点击绿色箭头查看邻近地区的地图。


METAR-TAF: